Terminal Aerodrome Forecast
Issued by NWS Wakefield, VA

Home | Current Version | Previous Version | Text Only | Print | Product List | Glossary On
Versions: 1 2 3 4 5 6 7 8 9 10 11 12 13 14 15 16 17 18 19 20 21
000
FTUS41 KAKQ 260533
TAFORF
TAF
KORF 260533Z 2606/2706 25006KT P6SM BKN060
     FM261000 29006KT P6SM BKN070
     FM261300 33006KT P6SM SCT200
     FM261700 03005KT P6SM BKN150
     FM262100 10006KT P6SM BKN120
     FM270200 14007KT P6SM BKN050=

USA.gov is the U.S. government's official web portal to all federal, state and local government web resources and services.